MM23 weather

Rancho Santa Ynes Airport
Baja California, Mexico

Public forecast

Using degrees Celsius for public forecast. Weather courtesy of forecast.io.

Closest aviation weather report (METAR) to Rancho Santa Ynes Airport

Closest report is (Old) Puerto PeƱasco Airport, 115.2 nm (213.3 km) NNE. Retrieved UTC (0 seconds ago):

Closest aviation forecast (TAF) to Rancho Santa Ynes Airport

Forecast is more than 6 hours old.

Closest forecast is General Ignacio P. Garcia International Airport, 194.7 nm (360.6 km) E. Retrieved 2020/05/31 18:18 UTC (8 hours ago):

TAF MMHO 311711Z 3118/0118 24015KT P6SM SKC BECMG 0102/0103 17005KT SCT080 FM011700 17010KT P6SM SCT030